Helena, Illinois
Current Conditions -  °F | °C
As of 8:53 AM on Sunday 23 Nov 2014 (Local Time) from KLWV Reporting Station
Light Rain Light Rain  
Wind Chill: 52°   Ceiling: 2600
Heat Index: 52°   Visibility: 2.5mi
Dew Point: 47°   Wind: 14mph
Humidity: 83%   Direction: 170°S
Pressure: 29.83"   Gusts: NA
Location:  38.793°N, 87.8326°W
Report Text: KLWV 231453Z AUTO 17012KT 2 1/2SM -RA FEW022 BKN026 OVC034 11/08 A2983 RMK AO2 RAB41 SLP100 P0000 60000 T01110083 56016
Loading
Personal Weather Stations






























Interactive Weather Map New forecast layout! Learn more

10-Day Weather Forecast

Advertisements
Track Severe Weather on mobile